createdAt,value
2018-03-02T00:00:24.022Z,-2.62
2018-03-02T00:01:24.010Z,-2.65
2018-03-02T00:02:23.957Z,-2.73
2018-03-02T00:03:23.890Z,-2.69
2018-03-02T00:04:23.877Z,-2.62
2018-03-02T00:05:23.864Z,-2.55
2018-03-02T00:06:23.801Z,-2.59
2018-03-02T00:07:23.780Z,-2.62
2018-03-02T00:08:23.733Z,-2.53
2018-03-02T00:09:23.634Z,-2.73
2018-03-02T00:10:23.626Z,-2.66
2018-03-02T00:11:23.547Z,-2.50
2018-03-02T00:12:23.507Z,-2.56
2018-03-02T00:13:23.557Z,-2.58
2018-03-02T00:14:23.437Z,-2.48
2018-03-02T00:15:23.407Z,-2.56
2018-03-02T00:16:23.371Z,-2.48
2018-03-02T00:17:23.281Z,-2.45
2018-03-02T00:18:23.265Z,-2.47
2018-03-02T00:19:23.233Z,-2.45
2018-03-02T00:20:23.199Z,-2.52
2018-03-02T00:21:23.116Z,-2.56
2018-03-02T00:22:23.062Z,-2.38
2018-03-02T00:23:23.043Z,-2.52
2018-03-02T00:24:22.978Z,-2.48
2018-03-02T00:25:22.969Z,-2.47
2018-03-02T00:26:22.904Z,-2.42
2018-03-02T00:27:22.891Z,-2.55
2018-03-02T00:28:22.821Z,-2.47
2018-03-02T00:29:22.814Z,-2.53
2018-03-02T00:30:22.762Z,-2.53
2018-03-02T00:31:22.669Z,-2.62
2018-03-02T00:32:22.679Z,-2.44
2018-03-02T00:33:22.680Z,-2.56
2018-03-02T00:34:22.580Z,-2.56
2018-03-02T00:35:22.497Z,-2.47
2018-03-02T00:36:22.532Z,-2.50
2018-03-02T00:37:22.433Z,-2.53
2018-03-02T00:38:22.386Z,-2.53
2018-03-02T00:39:22.366Z,-2.56
2018-03-02T00:40:22.333Z,-2.56
2018-03-02T00:41:22.237Z,-2.59
2018-03-02T00:42:22.241Z,-2.70
2018-03-02T00:43:22.155Z,-2.59
2018-03-02T00:44:22.117Z,-2.55
2018-03-02T00:45:22.121Z,-2.58
2018-03-02T00:46:22.065Z,-2.65
2018-03-02T00:47:22.053Z,-2.55
2018-03-02T00:48:22.025Z,-2.69
2018-03-02T00:49:21.890Z,-2.62
2018-03-02T00:50:21.883Z,-2.59
2018-03-02T00:51:21.809Z,-2.66
2018-03-02T00:52:21.770Z,-2.60
2018-03-02T00:53:21.814Z,-2.69
2018-03-02T00:54:21.789Z,-2.59
2018-03-02T00:55:21.630Z,-2.65
2018-03-02T00:56:21.604Z,-2.62
2018-03-02T00:57:21.539Z,-2.65
2018-03-02T00:58:21.534Z,-2.55
2018-03-02T00:59:21.472Z,-2.59
2018-03-02T01:00:21.432Z,-2.50
2018-03-02T01:01:21.383Z,-2.59
2018-03-02T01:02:21.334Z,-2.62
2018-03-02T01:03:21.296Z,-2.59
2018-03-02T01:04:21.235Z,-2.59
2018-03-02T01:05:21.206Z,-2.60
2018-03-02T01:06:21.179Z,-2.66
2018-03-02T01:07:21.158Z,-2.52
2018-03-02T01:08:21.098Z,-2.60
2018-03-02T01:09:21.019Z,-2.59
2018-03-02T01:10:21.023Z,-2.59
2018-03-02T01:11:20.957Z,-2.56
2018-03-02T01:12:20.925Z,-2.56
2018-03-02T01:13:20.864Z,-2.56
2018-03-02T01:14:20.804Z,-2.60
2018-03-02T01:15:20.778Z,-2.52
2018-03-02T01:16:20.750Z,-2.47
2018-03-02T01:17:20.791Z,-2.42
2018-03-02T01:18:20.635Z,-2.55
2018-03-02T01:19:20.581Z,-2.59
2018-03-02T01:20:20.582Z,-2.55
2018-03-02T01:21:20.494Z,-2.59
2018-03-02T01:22:20.521Z,-2.45
2018-03-02T01:23:20.406Z,-2.45
2018-03-02T01:24:20.378Z,-2.59
2018-03-02T01:25:20.350Z,-2.52
2018-03-02T01:26:20.275Z,-2.47
2018-03-02T01:27:20.255Z,-2.58
2018-03-02T01:28:20.260Z,-2.60
2018-03-02T01:29:20.203Z,-2.52
2018-03-02T01:30:20.122Z,-2.58
2018-03-02T01:31:20.061Z,-2.56
2018-03-02T01:32:20.048Z,-2.60
2018-03-02T01:33:19.985Z,-2.63
2018-03-02T01:34:20.018Z,-2.58
2018-03-02T01:35:19.905Z,-2.60
2018-03-02T01:36:19.905Z,-2.59
2018-03-02T01:37:19.856Z,-2.62
2018-03-02T01:38:19.754Z,-2.55
2018-03-02T01:39:19.785Z,-2.53
2018-03-02T01:40:19.727Z,-2.59
2018-03-02T01:41:19.625Z,-2.55
2018-03-02T01:42:19.655Z,-2.58
2018-03-02T01:43:19.563Z,-2.63
2018-03-02T01:44:19.564Z,-2.53
2018-03-02T01:45:19.469Z,-2.60
2018-03-02T01:46:19.423Z,-2.55
2018-03-02T01:47:19.425Z,-2.62
2018-03-02T01:48:19.348Z,-2.59
2018-03-02T01:49:19.325Z,-2.60
2018-03-02T01:50:19.280Z,-2.69
2018-03-02T01:51:19.255Z,-2.58
2018-03-02T01:52:19.196Z,-2.58
2018-03-02T01:53:19.098Z,-2.60
2018-03-02T01:54:19.135Z,-2.53
2018-03-02T01:55:19.033Z,-2.52
2018-03-02T01:56:18.988Z,-2.55
2018-03-02T01:57:18.973Z,-2.58
2018-03-02T01:58:18.902Z,-2.59
2018-03-02T01:59:18.868Z,-2.63
2018-03-02T02:00:18.847Z,-2.59
2018-03-02T02:01:18.750Z,-2.63
2018-03-02T02:02:18.754Z,-2.58
2018-03-02T02:03:18.663Z,-2.58
2018-03-02T02:04:18.693Z,-2.58
2018-03-02T02:05:18.577Z,-2.55
2018-03-02T02:06:18.606Z,-2.55
2018-03-02T02:07:18.487Z,-2.60
2018-03-02T02:08:18.446Z,-2.59
2018-03-02T02:09:18.430Z,-2.55
2018-03-02T02:10:18.356Z,-2.56
2018-03-02T02:11:18.352Z,-2.55
2018-03-02T02:12:18.288Z,-2.55
2018-03-02T02:13:18.245Z,-2.63
2018-03-02T02:14:18.209Z,-2.60
2018-03-02T02:15:18.144Z,-2.58
2018-03-02T02:16:18.140Z,-2.59
2018-03-02T02:17:18.096Z,-2.50
2018-03-02T02:18:18.057Z,-2.58
2018-03-02T02:19:17.978Z,-2.58
2018-03-02T02:20:17.954Z,-2.65
2018-03-02T02:21:17.940Z,-2.58
2018-03-02T02:22:17.913Z,-2.56
2018-03-02T02:23:17.801Z,-2.55
2018-03-02T02:24:17.808Z,-2.69
2018-03-02T02:25:17.710Z,-2.62
2018-03-02T02:26:17.705Z,-2.60
2018-03-02T02:27:17.677Z,-2.69
2018-03-02T02:28:17.574Z,-2.65
2018-03-02T02:29:17.634Z,-2.63
2018-03-02T02:30:17.512Z,-2.63
2018-03-02T02:31:17.453Z,-2.59
2018-03-02T02:32:17.417Z,-2.69
2018-03-02T02:33:17.363Z,-2.65
2018-03-02T02:34:17.402Z,-2.62
2018-03-02T02:35:17.289Z,-2.58
2018-03-02T02:36:17.807Z,-2.58
2018-03-02T02:37:17.193Z,-2.62
2018-03-02T02:38:17.146Z,-2.66
2018-03-02T02:39:17.146Z,-2.63
2018-03-02T02:40:17.052Z,-2.63
2018-03-02T02:41:17.033Z,-2.69
2018-03-02T02:42:16.991Z,-2.62
2018-03-02T02:43:16.921Z,-2.66
2018-03-02T02:44:16.942Z,-2.63
2018-03-02T02:45:16.873Z,-2.70
2018-03-02T02:46:16.886Z,-2.63
2018-03-02T02:47:16.809Z,-2.71
2018-03-02T02:48:16.713Z,-2.62
2018-03-02T02:49:16.696Z,-2.63
2018-03-02T02:50:16.620Z,-2.56
2018-03-02T02:51:16.683Z,-2.63
2018-03-02T02:52:16.582Z,-2.65
2018-03-02T02:53:16.489Z,-2.65
2018-03-02T02:54:16.514Z,-2.62
2018-03-02T02:55:16.396Z,-2.66
2018-03-02T02:56:17.051Z,-2.70
2018-03-02T02:57:17.518Z,-2.66
2018-03-02T02:58:17.124Z,-2.63
2018-03-02T02:59:16.230Z,-2.71
2018-03-02T03:00:16.194Z,-2.62
2018-03-02T03:01:16.132Z,-2.66
2018-03-02T03:02:16.193Z,-2.62
2018-03-02T03:03:16.093Z,-2.73
2018-03-02T03:04:16.012Z,-2.69
2018-03-02T03:05:15.976Z,-2.70
2018-03-02T03:06:15.912Z,-2.73
2018-03-02T03:07:15.944Z,-2.69
2018-03-02T03:08:15.838Z,-2.62
2018-03-02T03:09:15.825Z,-2.70
2018-03-02T03:10:15.759Z,-2.73
2018-03-02T03:11:15.702Z,-2.63
2018-03-02T03:12:15.716Z,-2.69
2018-03-02T03:13:15.617Z,-2.70
2018-03-02T03:14:15.602Z,-2.71
2018-03-02T03:15:15.543Z,-2.73
2018-03-02T03:16:15.524Z,-2.66
2018-03-02T03:17:15.437Z,-2.69
2018-03-02T03:18:15.437Z,-2.71
2018-03-02T03:19:15.400Z,-2.71
2018-03-02T03:20:15.301Z,-2.70
2018-03-02T03:21:15.311Z,-2.65
2018-03-02T03:22:15.215Z,-2.60
2018-03-02T03:23:15.175Z,-2.73
2018-03-02T03:24:15.140Z,-2.69
2018-03-02T03:25:15.141Z,-2.60
2018-03-02T03:26:15.098Z,-2.63
2018-03-02T03:27:15.012Z,-2.63
2018-03-02T03:28:14.956Z,-2.73
2018-03-02T03:29:14.929Z,-2.70
2018-03-02T03:30:14.869Z,-2.69
2018-03-02T03:31:14.861Z,-2.63
2018-03-02T03:32:14.778Z,-2.66
2018-03-02T03:33:14.784Z,-2.56
2018-03-02T03:34:14.697Z,-2.73
2018-03-02T03:35:14.648Z,-2.66
2018-03-02T03:36:14.644Z,-2.69
2018-03-02T03:37:14.563Z,-2.63
2018-03-02T03:38:14.604Z,-2.70
2018-03-02T03:39:14.520Z,-2.76
2018-03-02T03:40:14.434Z,-2.73
2018-03-02T03:41:14.412Z,-2.78
2018-03-02T03:42:14.367Z,-2.71
2018-03-02T03:43:14.355Z,-2.78
2018-03-02T03:44:14.257Z,-2.76
2018-03-02T03:45:14.214Z,-2.69
2018-03-02T03:46:14.186Z,-2.70
2018-03-02T03:47:14.128Z,-2.76
2018-03-02T03:48:14.166Z,-2.77
2018-03-02T03:49:14.037Z,-2.77
2018-03-02T03:50:14.058Z,-2.80
2018-03-02T03:51:13.957Z,-2.86
2018-03-02T03:52:13.989Z,-2.84
2018-03-02T03:53:13.867Z,-2.81
2018-03-02T03:54:13.832Z,-2.78
2018-03-02T03:55:13.810Z,-2.86
2018-03-02T03:56:13.737Z,-2.86
2018-03-02T03:57:13.740Z,-2.88
2018-03-02T03:58:13.661Z,-2.91
2018-03-02T03:59:13.675Z,-2.86
2018-03-02T04:00:13.557Z,-2.86
2018-03-02T04:01:13.512Z,-2.86
2018-03-02T04:02:13.556Z,-2.89
2018-03-02T04:03:13.457Z,-2.81
2018-03-02T04:04:13.471Z,-2.84
2018-03-02T04:05:13.398Z,-2.89
2018-03-02T04:06:13.318Z,-2.88
2018-03-02T04:07:13.309Z,-2.92
2018-03-02T04:08:13.207Z,-2.88
2018-03-02T04:09:13.189Z,-2.83
2018-03-02T04:10:13.184Z,-2.98
2018-03-02T04:11:13.083Z,-2.89
2018-03-02T04:12:13.049Z,-2.94
2018-03-02T04:13:13.040Z,-2.89
2018-03-02T04:14:12.949Z,-2.92
2018-03-02T04:15:12.925Z,-2.83
2018-03-02T04:16:12.862Z,-2.89
2018-03-02T04:17:12.851Z,-2.86
2018-03-02T04:18:12.774Z,-2.81
2018-03-02T04:19:12.796Z,-2.86
2018-03-02T04:20:12.762Z,-2.95
2018-03-02T04:21:12.656Z,-2.92
2018-03-02T04:22:12.624Z,-2.89
2018-03-02T04:23:12.551Z,-2.88
2018-03-02T04:24:12.581Z,-2.92
2018-03-02T04:25:12.481Z,-2.92
2018-03-02T04:26:12.448Z,-2.95
2018-03-02T04:27:12.409Z,-2.97
2018-03-02T04:28:12.372Z,-2.92
2018-03-02T04:29:12.290Z,-2.95
2018-03-02T04:30:12.248Z,-2.95
2018-03-02T04:31:12.215Z,-2.99
2018-03-02T04:32:12.221Z,-3.01
2018-03-02T04:33:12.139Z,-2.98
2018-03-02T04:34:12.092Z,-3.04
2018-03-02T04:35:12.100Z,-2.95
2018-03-02T04:36:12.062Z,-2.95
2018-03-02T04:37:11.936Z,-2.94
2018-03-02T04:38:11.936Z,-2.97
2018-03-02T04:39:11.883Z,-2.99
2018-03-02T04:40:11.821Z,-2.97
2018-03-02T04:41:11.776Z,-3.06
2018-03-02T04:42:11.736Z,-3.07
2018-03-02T04:43:11.711Z,-3.02
2018-03-02T04:44:11.672Z,-2.98
2018-03-02T04:45:11.604Z,-2.97
2018-03-02T04:46:11.544Z,-2.97
2018-03-02T04:47:11.515Z,-2.98
2018-03-02T04:48:11.516Z,-2.97
2018-03-02T04:49:11.419Z,-2.95
2018-03-02T04:50:11.369Z,-2.84
2018-03-02T04:51:11.352Z,-2.92
2018-03-02T04:52:11.337Z,-2.86
2018-03-02T04:53:11.329Z,-2.83
2018-03-02T04:54:11.217Z,-2.88
2018-03-02T04:55:11.163Z,-2.99
2018-03-02T04:56:11.153Z,-3.02
2018-03-02T04:57:11.069Z,-3.01
2018-03-02T04:58:11.019Z,-2.98
2018-03-02T04:59:11.018Z,-2.95
2018-03-02T05:00:10.942Z,-2.94
2018-03-02T05:01:10.923Z,-3.04
2018-03-02T05:02:10.862Z,-2.98
2018-03-02T05:03:10.859Z,-2.98
2018-03-02T05:04:10.780Z,-2.98
2018-03-02T05:05:10.719Z,-3.06
2018-03-02T05:06:10.757Z,-3.01
2018-03-02T05:07:10.636Z,-3.01
2018-03-02T05:08:10.592Z,-3.01
2018-03-02T05:09:10.540Z,-2.97
2018-03-02T05:10:10.522Z,-3.01
2018-03-02T05:11:10.456Z,-3.09
2018-03-02T05:12:10.411Z,-3.01
2018-03-02T05:13:10.438Z,-3.06
2018-03-02T05:14:10.337Z,-2.94
2018-03-02T05:15:10.282Z,-3.01
2018-03-02T05:16:10.278Z,-2.99
2018-03-02T05:17:10.187Z,-2.99
2018-03-02T05:18:10.142Z,-3.04
2018-03-02T05:19:10.210Z,-2.97
2018-03-02T05:20:10.085Z,-3.01
2018-03-02T05:21:10.029Z,-3.09
2018-03-02T05:22:09.969Z,-3.07
2018-03-02T05:23:09.955Z,-3.06
2018-03-02T05:24:09.883Z,-3.09
2018-03-02T05:25:09.848Z,-3.12
2018-03-02T05:26:09.796Z,-3.02
2018-03-02T05:27:09.765Z,-3.06
2018-03-02T05:28:09.742Z,-3.16
2018-03-02T05:29:09.692Z,-3.12
2018-03-02T05:30:09.615Z,-3.19
2018-03-02T05:31:09.584Z,-3.09
2018-03-02T05:32:09.608Z,-3.12
2018-03-02T05:33:09.494Z,-3.02
2018-03-02T05:34:09.465Z,-3.10
2018-03-02T05:35:09.405Z,-3.12
2018-03-02T05:36:09.358Z,-3.15
2018-03-02T05:37:09.367Z,-3.09
2018-03-02T05:38:09.286Z,-3.13
2018-03-02T05:39:09.228Z,-3.15
2018-03-02T05:40:09.431Z,-3.19
2018-03-02T05:41:09.155Z,-3.12
2018-03-02T05:42:09.395Z,-3.13
2018-03-02T05:43:09.070Z,-3.19
2018-03-02T05:44:09.004Z,-3.13
2018-03-02T05:45:08.972Z,-3.15
2018-03-02T05:46:08.932Z,-3.16
2018-03-02T05:47:08.894Z,-3.12
2018-03-02T05:48:08.829Z,-3.06
2018-03-02T05:49:08.788Z,-3.07
2018-03-02T05:50:08.745Z,-3.13
2018-03-02T05:51:08.702Z,-3.15
2018-03-02T05:52:08.653Z,-3.09
2018-03-02T05:53:08.610Z,-3.04
2018-03-02T05:54:08.568Z,-3.16
2018-03-02T05:55:08.531Z,-3.12
2018-03-02T05:56:08.481Z,-3.16
2018-03-02T05:57:08.438Z,-3.10
2018-03-02T05:58:08.393Z,-3.13
2018-03-02T05:59:08.352Z,-3.15
2018-03-02T06:00:08.362Z,-3.15
2018-03-02T06:01:08.260Z,-3.02
2018-03-02T06:02:08.220Z,-3.06
2018-03-02T06:03:08.384Z,-3.16
2018-03-02T06:04:08.129Z,-3.07
2018-03-02T06:05:08.089Z,-3.13
2018-03-02T06:06:08.049Z,-3.20
2018-03-02T06:07:07.999Z,-3.17
2018-03-02T06:08:07.955Z,-3.22
2018-03-02T06:09:07.908Z,-3.09
2018-03-02T06:10:07.872Z,-3.10
2018-03-02T06:11:07.825Z,-3.12
2018-03-02T06:12:07.779Z,-3.13
2018-03-02T06:13:07.739Z,-2.97
2018-03-02T06:14:07.690Z,-3.12
2018-03-02T06:15:07.649Z,-3.06
2018-03-02T06:16:07.602Z,-3.17
2018-03-02T06:17:07.561Z,-3.16
2018-03-02T06:18:07.515Z,-3.13
2018-03-02T06:19:07.474Z,-3.17
2018-03-02T06:20:07.428Z,-3.19
2018-03-02T06:21:07.387Z,-3.16
2018-03-02T06:22:07.341Z,-3.20
2018-03-02T06:23:07.300Z,-3.22
2018-03-02T06:24:07.255Z,-3.10
2018-03-02T06:25:07.214Z,-3.16
2018-03-02T06:26:07.194Z,-3.15
2018-03-02T06:27:07.124Z,-3.17
2018-03-02T06:28:07.084Z,-3.13
2018-03-02T06:29:07.038Z,-3.17
2018-03-02T06:30:06.992Z,-3.09
2018-03-02T06:31:06.947Z,-3.17
2018-03-02T06:32:06.900Z,-3.20
2018-03-02T06:33:06.859Z,-3.22
2018-03-02T06:34:06.813Z,-3.16
2018-03-02T06:35:06.772Z,-3.12
2018-03-02T06:36:06.726Z,-3.16
2018-03-02T06:37:06.684Z,-3.19
2018-03-02T06:38:06.639Z,-3.19
2018-03-02T06:39:06.598Z,-3.20
2018-03-02T06:40:06.552Z,-3.16
2018-03-02T06:41:06.508Z,-3.16
2018-03-02T06:42:06.463Z,-3.15
2018-03-02T06:43:06.422Z,-3.23
2018-03-02T06:44:06.562Z,-3.10
2018-03-02T06:45:06.336Z,-3.17
2018-03-02T06:46:06.287Z,-3.09
2018-03-02T06:47:06.248Z,-3.13
2018-03-02T06:48:06.223Z,-3.15
2018-03-02T06:49:06.973Z,-3.09
2018-03-02T06:50:06.114Z,-3.10
2018-03-02T06:51:06.074Z,-3.06
2018-03-02T06:52:06.027Z,-3.09
2018-03-02T06:53:06.010Z,-3.10
2018-03-02T06:54:05.938Z,-3.17
2018-03-02T06:55:05.898Z,-3.19
2018-03-02T06:56:05.854Z,-3.15
2018-03-02T06:57:05.809Z,-3.10
2018-03-02T06:58:05.763Z,-3.04
2018-03-02T06:59:05.720Z,-3.19
2018-03-02T07:00:05.676Z,-3.19
2018-03-02T07:01:05.637Z,-3.17
2018-03-02T07:02:05.586Z,-3.15
2018-03-02T07:03:05.546Z,-3.15
2018-03-02T07:04:05.498Z,-3.15
2018-03-02T07:05:05.459Z,-3.15
2018-03-02T07:06:05.412Z,-3.12
2018-03-02T07:07:05.382Z,-3.17
2018-03-02T07:08:05.324Z,-3.12
2018-03-02T07:09:05.298Z,-3.13
2018-03-02T07:10:05.238Z,-3.17
2018-03-02T07:11:05.194Z,-3.17
2018-03-02T07:12:05.151Z,-3.01
2018-03-02T07:13:05.106Z,-3.07
2018-03-02T07:14:05.063Z,-3.06
2018-03-02T07:15:05.020Z,-3.04
2018-03-02T07:16:04.975Z,-3.20
2018-03-02T07:17:04.930Z,-3.12
2018-03-02T07:18:04.893Z,-3.15
2018-03-02T07:19:04.845Z,-3.02
2018-03-02T07:20:04.798Z,-3.10
2018-03-02T07:21:04.755Z,-2.97
2018-03-02T07:22:04.710Z,-3.04
2018-03-02T07:23:04.670Z,-3.02
2018-03-02T07:24:04.622Z,-2.98
2018-03-02T07:25:04.584Z,-2.99
2018-03-02T07:26:04.536Z,-2.98
2018-03-02T07:27:04.491Z,-3.06
2018-03-02T07:28:04.446Z,-3.01
2018-03-02T07:29:04.405Z,-2.89
2018-03-02T07:30:04.364Z,-2.91
2018-03-02T07:31:04.317Z,-2.86
2018-03-02T07:32:04.272Z,-2.92
2018-03-02T07:33:04.230Z,-2.88
2018-03-02T07:34:04.188Z,-2.92
2018-03-02T07:35:04.143Z,-2.91
2018-03-02T07:36:04.101Z,-2.81
2018-03-02T07:37:04.053Z,-2.89
2018-03-02T07:38:04.012Z,-2.91
2018-03-02T07:39:03.988Z,-2.89
2018-03-02T07:40:03.925Z,-2.83
2018-03-02T07:41:03.882Z,-2.83
2018-03-02T07:42:03.842Z,-2.80
2018-03-02T07:43:03.792Z,-2.84
2018-03-02T07:44:03.750Z,-2.83
2018-03-02T07:45:03.708Z,-2.91
2018-03-02T07:46:03.662Z,-2.81
2018-03-02T07:47:03.620Z,-2.88
2018-03-02T07:48:03.574Z,-2.80
2018-03-02T07:49:03.532Z,-2.88
2018-03-02T07:50:03.488Z,-2.84
2018-03-02T07:51:03.450Z,-2.77
2018-03-02T07:52:03.400Z,-2.78
2018-03-02T07:53:03.359Z,-2.77
2018-03-02T07:54:03.320Z,-2.81
2018-03-02T07:55:03.279Z,-2.73
2018-03-02T07:56:03.226Z,-2.73
2018-03-02T07:57:03.233Z,-2.73
2018-03-02T07:58:03.138Z,-2.74
2018-03-02T07:59:03.101Z,-2.71
2018-03-02T08:00:03.078Z,-2.77
2018-03-02T08:01:03.008Z,-2.83
2018-03-02T08:02:02.975Z,-2.74
2018-03-02T08:03:02.923Z,-2.73
2018-03-02T08:04:02.910Z,-2.70
2018-03-02T08:05:02.837Z,-2.74
2018-03-02T08:06:02.791Z,-2.70
2018-03-02T08:07:02.750Z,-2.63
2018-03-02T08:08:02.733Z,-2.69
2018-03-02T08:09:02.664Z,-2.65
2018-03-02T08:10:02.645Z,-2.66
2018-03-02T08:11:02.575Z,-2.58
2018-03-02T08:12:02.531Z,-2.47
2018-03-02T08:13:02.486Z,-2.62
2018-03-02T08:14:02.460Z,-2.45
2018-03-02T08:15:02.402Z,-2.47
2018-03-02T08:16:02.359Z,-2.45
2018-03-02T08:17:02.315Z,-2.56
2018-03-02T08:18:02.272Z,-2.62
2018-03-02T08:19:02.229Z,-2.59
2018-03-02T08:20:02.184Z,-2.56
2018-03-02T08:21:02.138Z,-2.58
2018-03-02T08:22:02.097Z,-2.50
2018-03-02T08:23:02.057Z,-2.50
2018-03-02T08:24:02.011Z,-2.44
2018-03-02T08:25:01.970Z,-2.45
2018-03-02T08:26:01.931Z,-2.50
2018-03-02T08:27:01.881Z,-2.45
2018-03-02T08:28:01.836Z,-2.44
2018-03-02T08:29:01.795Z,-2.52
2018-03-02T08:30:01.750Z,-2.40
2018-03-02T08:31:01.708Z,-2.44
2018-03-02T08:32:01.667Z,-2.42
2018-03-02T08:33:01.621Z,-2.40
2018-03-02T08:34:01.577Z,-2.37
2018-03-02T08:35:01.534Z,-2.38
2018-03-02T08:36:01.492Z,-2.41
2018-03-02T08:37:01.459Z,-2.41
2018-03-02T08:38:01.406Z,-2.40
2018-03-02T08:39:01.362Z,-2.41
2018-03-02T08:40:01.317Z,-2.21
2018-03-02T08:41:01.274Z,-2.32
2018-03-02T08:42:01.231Z,-2.30
2018-03-02T08:43:01.189Z,-2.18
2018-03-02T08:44:01.147Z,-2.12
2018-03-02T08:45:01.101Z,-2.08
2018-03-02T08:46:01.061Z,-2.07
2018-03-02T08:47:01.016Z,-2.08
2018-03-02T08:48:00.974Z,-2.07
2018-03-02T08:49:00.929Z,-2.01
2018-03-02T08:50:00.886Z,-2.15
2018-03-02T08:51:00.844Z,-2.16
2018-03-02T08:52:00.800Z,-2.12
2018-03-02T08:53:00.760Z,-2.08
2018-03-02T08:54:00.714Z,-2.00
2018-03-02T08:55:00.672Z,-1.95
2018-03-02T08:56:00.628Z,-2.00
2018-03-02T08:57:00.586Z,-2.07
2018-03-02T08:58:00.542Z,-2.00
2018-03-02T08:59:00.498Z,-2.00
2018-03-02T09:00:00.457Z,-1.97
2018-03-02T09:01:00.427Z,-1.97
2018-03-02T09:02:00.369Z,-1.86
2018-03-02T09:03:00.326Z,-1.80
2018-03-02T09:04:00.284Z,-1.86
2018-03-02T09:05:00.243Z,-1.87
2018-03-02T09:06:00.201Z,-1.97
2018-03-02T09:07:00.158Z,-1.94
2018-03-02T09:08:00.114Z,-1.87
2018-03-02T09:09:00.073Z,-2.00
2018-03-02T09:10:00.037Z,-1.87
2018-03-02T09:10:59.985Z,-1.95
2018-03-02T09:11:59.941Z,-1.86
2018-03-02T09:12:59.898Z,-1.77
2018-03-02T09:13:59.858Z,-1.84
2018-03-02T09:14:59.813Z,-1.68
2018-03-02T09:15:59.770Z,-1.58
2018-03-02T09:16:59.727Z,-1.68
2018-03-02T09:17:59.684Z,-1.68
2018-03-02T09:18:59.683Z,-1.69
2018-03-02T09:19:59.601Z,-1.62
2018-03-02T09:20:59.552Z,-1.68
2018-03-02T09:21:59.515Z,-1.65
2018-03-02T09:22:59.473Z,-1.62
2018-03-02T09:23:59.429Z,-1.66
2018-03-02T09:24:59.407Z,-1.71
2018-03-02T09:25:59.344Z,-1.59
2018-03-02T09:26:59.298Z,-1.58
2018-03-02T09:27:59.258Z,-1.53
2018-03-02T09:28:59.214Z,-1.43
2018-03-02T09:29:59.189Z,-1.43
2018-03-02T09:30:59.131Z,-1.43
2018-03-02T09:31:59.087Z,-1.37
2018-03-02T09:32:59.099Z,-1.27
2018-03-02T09:33:59.002Z,-1.22
2018-03-02T09:34:58.960Z,-1.22
2018-03-02T09:35:58.917Z,-1.11
2018-03-02T09:36:58.876Z,-1.08
2018-03-02T09:37:58.832Z,-1.11
2018-03-02T09:38:58.790Z,-0.99
2018-03-02T09:39:58.746Z,-0.94
2018-03-02T09:40:58.704Z,-0.96
2018-03-02T09:41:58.665Z,-0.89
2018-03-02T09:42:58.620Z,-0.93
2018-03-02T09:43:58.579Z,-0.90
2018-03-02T09:44:58.537Z,-0.94
2018-03-02T09:45:58.496Z,-0.99
2018-03-02T09:46:58.452Z,-0.94
2018-03-02T09:47:58.410Z,-0.89
2018-03-02T09:48:58.367Z,-0.99
2018-03-02T09:49:58.326Z,-0.82
2018-03-02T09:50:58.283Z,-0.82
2018-03-02T09:51:58.238Z,-0.80
2018-03-02T09:52:58.198Z,-0.89
2018-03-02T09:53:58.199Z,-0.83
2018-03-02T09:54:58.114Z,-0.85
2018-03-02T09:55:58.073Z,-0.80
2018-03-02T09:56:58.030Z,-0.78
2018-03-02T09:57:57.992Z,-0.74
2018-03-02T09:58:57.948Z,-0.70
2018-03-02T09:59:57.904Z,-0.86
2018-03-02T10:00:57.860Z,-0.85
2018-03-02T10:01:57.819Z,-0.85
2018-03-02T10:02:57.779Z,-0.72
2018-03-02T10:03:57.740Z,-0.70
2018-03-02T10:04:57.693Z,-0.77
2018-03-02T10:05:57.652Z,-0.68
2018-03-02T10:06:57.614Z,-0.71
2018-03-02T10:07:57.577Z,-0.70
2018-03-02T10:08:57.528Z,-0.68
2018-03-02T10:09:57.517Z,-0.67
2018-03-02T10:10:57.444Z,-0.70
2018-03-02T10:11:57.440Z,-0.62
2018-03-02T10:12:57.384Z,-0.71
2018-03-02T10:13:57.339Z,-0.71
2018-03-02T10:14:57.299Z,-0.53
2018-03-02T10:15:57.252Z,-0.50
2018-03-02T10:16:57.197Z,-0.49
2018-03-02T10:17:57.198Z,-0.35
2018-03-02T10:18:57.108Z,-0.46
2018-03-02T10:19:57.063Z,-0.46
2018-03-02T10:20:57.135Z,-0.53
2018-03-02T10:21:56.998Z,-0.49
2018-03-02T10:22:56.961Z,-0.39
2018-03-02T10:23:56.959Z,-0.43
2018-03-02T10:24:56.873Z,-0.36
2018-03-02T10:25:56.831Z,-0.38
2018-03-02T10:26:56.782Z,-0.32
2018-03-02T10:27:56.778Z,-0.32
2018-03-02T10:28:56.708Z,-0.29
2018-03-02T10:29:58.992Z,-0.41
2018-03-02T10:30:57.437Z,-0.39
2018-03-02T10:31:57.440Z,-0.34
2018-03-02T10:32:56.517Z,-0.28
2018-03-02T10:33:56.478Z,-0.28
2018-03-02T10:34:56.477Z,-0.28
2018-03-02T10:35:56.406Z,-0.26
2018-03-02T10:36:56.388Z,-0.21
2018-03-02T10:37:56.311Z,-0.21
2018-03-02T10:38:56.283Z,-0.21
2018-03-02T10:39:56.270Z,-0.15
2018-03-02T10:40:56.199Z,-0.07
2018-03-02T10:41:56.159Z,-0.10
2018-03-02T10:42:56.114Z,-0.17
2018-03-02T10:43:56.061Z,-0.25
2018-03-02T10:44:56.042Z,-0.17
2018-03-02T10:45:55.975Z,-0.25
2018-03-02T10:46:55.957Z,-0.28
2018-03-02T10:47:55.922Z,-0.23
2018-03-02T10:48:55.871Z,-0.28
2018-03-02T10:49:55.818Z,-0.35
2018-03-02T10:50:55.791Z,-0.26
2018-03-02T10:51:55.742Z,-0.29
2018-03-02T10:52:55.727Z,-0.32
2018-03-02T10:53:55.724Z,-0.23
2018-03-02T10:54:55.622Z,-0.18
2018-03-02T10:55:55.589Z,-0.18
2018-03-02T10:56:55.516Z,-0.17
2018-03-02T10:57:55.537Z,-0.21
2018-03-02T10:58:55.430Z,-0.18
2018-03-02T10:59:55.401Z,-0.25
2018-03-02T11:00:55.374Z,-0.13
2018-03-02T11:01:55.304Z,-0.25
2018-03-02T11:02:55.293Z,-0.11
2018-03-02T11:03:55.225Z,-0.14
2018-03-02T11:04:55.266Z,-0.11
2018-03-02T11:05:55.145Z,-0.10
2018-03-02T11:06:55.133Z,-0.14
2018-03-02T11:07:55.084Z,-0.11
2018-03-02T11:08:55.073Z,-0.07
2018-03-02T11:09:54.972Z,0.03
2018-03-02T11:10:54.948Z,0.05
2018-03-02T11:11:54.942Z,0.03
2018-03-02T11:12:54.924Z,0.01
2018-03-02T11:13:54.811Z,0.11
2018-03-02T11:14:54.805Z,0.26
2018-03-02T11:15:54.795Z,0.31
2018-03-02T11:16:54.715Z,0.29
2018-03-02T11:17:54.639Z,0.26
2018-03-02T11:18:54.611Z,0.32
2018-03-02T11:19:54.572Z,0.37
2018-03-02T11:20:54.528Z,0.31
2018-03-02T11:21:54.473Z,0.43
2018-03-02T11:22:54.492Z,0.41
2018-03-02T11:23:54.430Z,0.46
2018-03-02T11:24:54.356Z,0.62
2018-03-02T11:25:54.401Z,0.58
2018-03-02T11:26:54.264Z,0.63
2018-03-02T11:27:54.257Z,0.52
2018-03-02T11:28:54.185Z,0.62
2018-03-02T11:29:54.206Z,0.59
2018-03-02T11:30:54.128Z,0.44
2018-03-02T11:31:54.060Z,0.37
2018-03-02T11:32:54.021Z,0.34
2018-03-02T11:33:54.027Z,0.36
2018-03-02T11:34:53.974Z,0.36
2018-03-02T11:35:53.912Z,0.25
2018-03-02T11:36:53.931Z,0.32
2018-03-02T11:37:53.816Z,0.36
2018-03-02T11:38:53.820Z,0.36
2018-03-02T11:39:53.817Z,0.36
2018-03-02T11:40:53.737Z,0.43
2018-03-02T11:41:53.725Z,0.47
2018-03-02T11:42:53.613Z,0.58
2018-03-02T11:43:53.578Z,0.56
2018-03-02T11:44:53.551Z,0.68
2018-03-02T11:45:53.494Z,0.62
2018-03-02T11:46:53.480Z,0.58
2018-03-02T11:47:53.437Z,0.59
2018-03-02T11:48:53.386Z,0.59
2018-03-02T11:49:53.375Z,0.65
2018-03-02T11:50:53.308Z,0.62
2018-03-02T11:51:53.243Z,0.65
2018-03-02T11:52:53.205Z,0.68
2018-03-02T11:53:53.167Z,0.76
2018-03-02T11:54:53.127Z,0.76
2018-03-02T11:55:53.060Z,0.74
2018-03-02T11:56:53.025Z,0.81
2018-03-02T11:57:52.982Z,0.81
2018-03-02T11:58:52.942Z,0.84
2018-03-02T11:59:52.900Z,0.78
2018-03-02T12:00:52.858Z,0.78
2018-03-02T12:01:52.819Z,0.73
2018-03-02T12:02:52.777Z,0.70
2018-03-02T12:03:52.736Z,0.76
2018-03-02T12:04:52.694Z,0.70
2018-03-02T12:05:52.652Z,0.83
2018-03-02T12:06:52.611Z,0.80
2018-03-02T12:07:52.572Z,0.80
2018-03-02T12:08:52.525Z,0.81
2018-03-02T12:09:52.485Z,0.69
2018-03-02T12:10:52.450Z,0.73
2018-03-02T12:11:52.402Z,0.81
2018-03-02T12:12:52.360Z,0.76
2018-03-02T12:13:52.319Z,0.76
2018-03-02T12:14:52.279Z,0.81
2018-03-02T12:15:52.241Z,0.73
2018-03-02T12:16:52.206Z,0.69
2018-03-02T12:17:52.157Z,0.80
2018-03-02T12:18:52.113Z,0.74
2018-03-02T12:19:52.073Z,0.70
2018-03-02T12:20:52.040Z,0.80
2018-03-02T12:21:51.990Z,0.77
2018-03-02T12:22:51.957Z,0.73
2018-03-02T12:23:51.906Z,0.73
2018-03-02T12:24:51.871Z,0.81
2018-03-02T12:25:51.823Z,0.76
2018-03-02T12:26:51.781Z,0.80
2018-03-02T12:27:52.655Z,0.77
2018-03-02T12:28:51.701Z,0.62
2018-03-02T12:29:51.656Z,0.58
2018-03-02T12:30:51.614Z,0.68
2018-03-02T12:31:51.573Z,0.78
2018-03-02T12:32:51.530Z,0.68
2018-03-02T12:33:51.492Z,0.78
2018-03-02T12:34:51.469Z,0.81
2018-03-02T12:35:51.405Z,0.70
2018-03-02T12:36:51.368Z,0.78
2018-03-02T12:37:51.324Z,0.70
2018-03-02T12:38:51.323Z,0.81
2018-03-02T12:39:51.241Z,0.73
2018-03-02T12:40:51.199Z,0.77
2018-03-02T12:41:51.156Z,0.78
2018-03-02T12:42:51.115Z,0.74
2018-03-02T12:43:51.074Z,0.77
2018-03-02T12:44:51.032Z,0.87
2018-03-02T12:45:50.995Z,0.88
2018-03-02T12:46:50.950Z,0.99
2018-03-02T12:47:50.914Z,0.92
2018-03-02T12:48:51.033Z,0.83
2018-03-02T12:49:50.825Z,0.91
2018-03-02T12:50:50.784Z,0.91
2018-03-02T12:51:50.743Z,0.92
2018-03-02T12:52:50.696Z,0.94
2018-03-02T12:53:50.658Z,0.92
2018-03-02T12:54:50.615Z,0.86
2018-03-02T12:55:50.572Z,0.84